Time;durP1;ratioP1;P1;durP2;ratioP2;P2;SDS_P1;SDS_P2;PMS_P1;PMS_P2;Temp;Humidity;BMP_temperature;BMP_pressure;BME280_temperature;BME280_humidity;BME280_pressure;Samples;Min_cycle;Max_cycle;Signal;HPM_P1;HPM_P2
2022/04/12 03:43:05;;;;;;;;;3.00;3.00;;;;;17.45;49.63;100302.63;5053140;27;45553;-75
2022/04/12 03:45:33;;;;;;;;;2.00;2.00;;;;;17.63;50.35;100300.94;5054404;27;45994;-78
2022/04/12 03:47:59;;;;;;;;;3.50;3.00;;;;;17.94;50.17;100304.50;5067275;27;45545;-75
2022/04/12 03:50:25;;;;;;;;;3.00;3.00;;;;;18.31;49.71;100295.69;5067173;28;45462;-76
2022/04/12 03:52:51;;;;;;;;;2.25;2.25;;;;;18.76;49.36;100290.63;5065449;27;46610;-75
2022/04/12 03:55:30;;;;;;;;;2.50;1.00;;;;;19.22;48.65;100299.63;5066014;28;45692;-75
2022/04/12 03:58:00;;;;;;;;;2.00;2.00;;;;;19.75;48.36;100289.06;5066627;28;45697;-75
2022/04/12 04:00:26;;;;;;;;;2.00;2.00;;;;;20.20;47.72;100280.19;5065552;28;45744;-76
2022/04/12 04:02:51;;;;;;;;;2.33;2.33;;;;;20.63;46.76;100281.16;5056013;28;47405;-76
2022/04/12 04:05:17;;;;;;;;;2.33;2.33;;;;;21.07;46.34;100282.03;5063594;28;45490;-76
2022/04/12 04:07:42;;;;;;;;;2.00;2.00;;;;;21.47;45.71;100290.41;5066116;28;45431;-76
2022/04/12 04:10:07;;;;;;;;;3.67;3.67;;;;;21.85;44.95;100281.88;5060686;28;52096;-74
2022/04/12 04:12:33;;;;;;;;;4.67;3.00;;;;;22.20;44.51;100276.28;5067645;27;45719;-75
2022/04/12 04:14:58;;;;;;;;;1.67;1.67;;;;;22.51;44.31;100286.34;5070473;27;45785;-75
2022/04/12 04:17:24;;;;;;;;;3.00;3.00;;;;;22.81;43.45;100275.00;5057413;28;45519;-75
2022/04/12 04:19:49;;;;;;;;;3.67;3.00;;;;;23.09;43.19;100288.06;5053129;28;45713;-75
2022/04/12 04:22:14;;;;;;;;;3.00;3.00;;;;;23.31;42.89;100289.13;5056284;28;46305;-75
2022/04/12 04:24:40;;;;;;;;;3.00;3.00;;;;;23.58;42.69;100299.66;5052619;28;45497;-76
2022/04/12 04:27:05;;;;;;;;;3.33;3.33;;;;;23.78;42.12;100300.00;5063581;28;45445;-76
2022/04/12 04:29:35;;;;;;;;;4.00;4.00;;;;;24.01;41.68;100296.44;5053341;28;45983;-78
2022/04/12 04:32:00;;;;;;;;;3.00;3.00;;;;;24.21;41.76;100297.63;5049908;28;45398;-81
2022/04/12 04:34:25;;;;;;;;;5.00;4.00;;;;;24.40;41.25;100298.13;5052651;28;50125;-83
2022/04/12 04:36:50;;;;;;;;;3.67;3.67;;;;;24.61;40.90;100302.00;5054235;28;49565;-80
2022/04/12 04:39:16;;;;;;;;;4.00;4.00;;;;;24.81;40.73;100299.56;5069116;28;45670;-77
2022/04/12 04:41:41;;;;;;;;;6.00;5.00;;;;;24.99;40.54;100301.94;5060021;27;45546;-76
2022/04/12 04:44:07;;;;;;;;;4.67;3.33;;;;;25.16;40.40;100290.00;5054296;28;45384;-77
2022/04/12 04:46:33;;;;;;;;;3.33;3.33;;;;;25.31;39.78;100309.84;5050894;28;49443;-76
2022/04/12 04:48:58;;;;;;;;;3.00;3.00;;;;;25.44;39.45;100314.56;5065946;27;45437;-75
2022/04/12 04:51:23;;;;;;;;;3.00;3.00;;;;;25.53;39.13;100324.28;5056819;28;45513;-75
2022/04/12 04:53:57;;;;;;;;;4.00;2.67;;;;;25.62;38.88;100324.19;5042859;28;51653;-75
2022/04/12 04:56:23;;;;;;;;;3.33;3.33;;;;;25.68;39.33;100320.72;5044739;28;46760;-77
2022/04/12 04:58:48;;;;;;;;;3.00;3.00;;;;;25.74;38.88;100327.22;5045047;28;45586;-73
2022/04/12 05:01:13;;;;;;;;;5.00;3.33;;;;;25.75;38.63;100318.88;5045484;28;46125;-74
2022/04/12 05:03:39;;;;;;;;;3.00;3.00;;;;;25.76;38.46;100312.41;5045980;28;46000;-73
2022/04/12 05:06:04;;;;;;;;;3.00;3.00;;;;;25.76;38.23;100320.56;5047165;28;45829;-73
2022/04/12 05:08:29;;;;;;;;;2.00;2.00;;;;;25.78;38.20;100337.53;5044680;28;46224;-73
2022/04/12 05:10:55;;;;;;;;;2.67;2.67;;;;;25.81;37.98;100344.47;5047837;28;45514;-73
2022/04/12 05:13:21;;;;;;;;;3.33;3.33;;;;;25.80;38.04;100340.06;5046572;28;45526;-73
2022/04/12 05:15:46;;;;;;;;;4.00;4.00;;;;;25.81;37.98;100352.63;5045672;28;49998;-73
2022/04/12 05:18:11;;;;;;;;;2.67;2.67;;;;;25.84;37.74;100359.53;5051277;28;49852;-73
2022/04/12 05:20:36;;;;;;;;;2.00;2.00;;;;;25.86;37.76;100352.88;5047119;28;52673;-74
2022/04/12 05:23:02;;;;;;;;;2.00;2.00;;;;;25.87;37.19;100354.56;5042145;28;45539;-73
2022/04/12 05:25:27;;;;;;;;;2.33;2.33;;;;;25.88;37.56;100361.66;5047130;28;45574;-75
2022/04/12 05:27:52;;;;;;;;;2.33;2.33;;;;;25.89;37.23;100357.06;5035783;28;45384;-75
2022/04/12 05:30:19;;;;;;;;;2.33;2.33;;;;;25.87;37.14;100349.13;5047476;28;45842;-73
2022/04/12 05:32:45;;;;;;;;;3.00;3.00;;;;;25.88;37.25;100356.22;5035631;28;45702;-73
2022/04/12 05:35:12;;;;;;;;;2.00;2.00;;;;;25.87;37.52;100356.44;5036585;28;45568;-73
2022/04/12 05:37:42;;;;;;;;;2.00;2.00;;;;;25.86;36.83;100363.75;5048321;28;45447;-73
2022/04/12 05:40:09;;;;;;;;;2.67;2.67;;;;;25.87;37.01;100361.88;5046084;28;46383;-83
2022/04/12 05:42:34;;;;;;;;;3.00;3.00;;;;;25.83;37.06;100371.44;5040194;28;45794;-82
2022/04/12 05:45:00;;;;;;;;;2.67;1.00;;;;;25.78;37.44;100372.88;5043135;28;45689;-82
2022/04/12 05:47:25;;;;;;;;;3.00;3.00;;;;;25.78;37.39;100381.03;5041222;28;49165;-82
2022/04/12 05:49:50;;;;;;;;;3.00;2.67;;;;;25.81;36.99;100376.22;5035608;28;54443;-81
2022/04/12 05:52:16;;;;;;;;;3.00;3.00;;;;;25.85;37.70;100380.25;5033944;28;45922;-78
2022/04/12 05:54:41;;;;;;;;;3.00;3.00;;;;;25.89;37.41;100376.09;5042448;28;45631;-80
2022/04/12 05:57:06;;;;;;;;;3.33;2.67;;;;;25.95;37.24;100385.38;5038400;28;45748;-81
2022/04/12 05:59:32;;;;;;;;;2.67;2.67;;;;;26.03;37.52;100396.09;5037395;28;56995;-79
2022/04/12 06:01:57;;;;;;;;;3.33;2.00;;;;;26.11;37.62;100390.53;5039843;28;45476;-80
2022/04/12 06:04:22;;;;;;;;;2.33;2.33;;;;;26.19;37.60;100386.84;5033793;28;47177;-79
2022/04/12 06:06:48;;;;;;;;;4.00;4.00;;;;;26.24;37.41;100392.53;5037688;28;45895;-79
2022/04/12 06:09:13;;;;;;;;;2.00;2.00;;;;;26.28;37.21;100396.59;5039004;28;45576;-78
2022/04/12 06:11:38;;;;;;;;;3.33;3.00;;;;;26.34;37.30;100397.69;5040100;28;45958;-75
2022/04/12 06:14:04;;;;;;;;;2.00;2.00;;;;;26.41;37.55;100392.31;5034838;28;46173;-78
2022/04/12 06:16:29;;;;;;;;;4.33;3.00;;;;;26.46;37.34;100389.00;5031094;28;51864;-78
2022/04/12 06:18:55;;;;;;;;;3.00;3.00;;;;;26.54;37.26;100394.28;5037314;28;45530;-79
2022/04/12 06:21:21;;;;;;;;;3.00;3.00;;;;;26.58;36.77;100403.75;5040437;27;45658;-84
2022/04/12 06:23:47;;;;;;;;;3.00;3.00;;;;;26.63;37.11;100408.59;5033945;28;45558;-84
2022/04/12 06:26:12;;;;;;;;;3.00;3.00;;;;;26.68;37.27;100415.13;5026943;28;45550;-79
2022/04/12 06:28:38;;;;;;;;;4.33;4.33;;;;;26.72;36.87;100421.00;5038229;28;45628;-87
2022/04/12 06:31:03;;;;;;;;;3.00;3.00;;;;;26.78;36.96;100420.25;5042672;28;45561;-85
2022/04/12 06:33:29;;;;;;;;;4.00;3.00;;;;;26.83;37.01;100419.63;5045937;28;45590;-85
2022/04/12 06:35:56;;;;;;;;;1.00;1.00;;;;;26.86;36.63;100418.41;5041280;28;45327;-87
2022/04/12 06:38:21;;;;;;;;;3.00;3.00;;;;;26.85;36.81;100422.97;5047679;28;45559;-88
2022/04/12 06:40:49;;;;;;;;;2.00;2.00;;;;;26.88;36.82;100430.75;5041500;27;45535;-80
2022/04/12 06:43:15;;;;;;;;;4.33;4.00;;;;;26.89;36.78;100443.34;5049877;28;45780;-82
2022/04/12 06:45:40;;;;;;;;;5.00;4.00;;;;;26.85;36.64;100431.16;5044066;28;45412;-77
2022/04/12 06:48:06;;;;;;;;;3.33;3.33;;;;;26.87;37.00;100436.41;5049790;28;46723;-75
2022/04/12 06:50:32;;;;;;;;;2.00;2.00;;;;;26.84;37.21;100452.13;5042791;28;46789;-76
2022/04/12 06:52:58;;;;;;;;;2.67;2.67;;;;;26.82;37.16;100453.34;5043831;28;45453;-77
2022/04/12 06:55:24;;;;;;;;;3.00;3.00;;;;;26.79;37.17;100461.91;5042703;28;45431;-78
2022/04/12 06:57:50;;;;;;;;;5.33;3.67;;;;;26.80;35.48;100474.47;5039546;28;45428;-77
2022/04/12 07:00:17;;;;;;;;;3.67;3.33;;;;;26.78;35.51;100482.00;5045563;28;45476;-80
2022/04/12 07:02:42;;;;;;;;;4.00;4.00;;;;;26.73;36.22;100468.97;5046798;28;45481;-79
2022/04/12 07:05:08;;;;;;;;;3.33;3.33;;;;;26.69;35.88;100481.31;5041066;28;45583;-80
2022/04/12 07:07:38;;;;;;;;;3.00;2.00;;;;;26.66;35.84;100470.81;5041647;28;46642;-79
2022/04/12 07:10:06;;;;;;;;;5.00;3.33;;;;;26.64;36.12;100481.06;5034637;28;45400;-80
2022/04/12 07:12:31;;;;;;;;;4.33;4.00;;;;;26.59;36.07;100489.81;5046649;28;45426;-80
2022/04/12 07:14:56;;;;;;;;;2.67;2.67;;;;;26.60;36.07;100482.50;5040772;28;45486;-80
2022/04/12 07:17:22;;;;;;;;;3.67;3.67;;;;;26.58;36.30;100480.78;5039250;28;45864;-79
2022/04/12 07:19:47;;;;;;;;;4.00;3.33;;;;;26.56;36.69;100476.56;5044790;28;45473;-80
2022/04/12 07:22:13;;;;;;;;;4.00;4.00;;;;;26.56;35.39;100473.84;5040781;28;45435;-76
2022/04/12 07:24:38;;;;;;;;;6.67;4.00;;;;;26.55;35.46;100478.47;5043787;28;45332;-76
2022/04/12 07:27:03;;;;;;;;;5.00;4.67;;;;;26.53;35.35;100491.41;5033627;28;46101;-75
2022/04/12 07:29:30;;;;;;;;;5.67;3.00;;;;;26.48;35.04;100493.88;5045674;28;45514;-83
2022/04/12 07:31:56;;;;;;;;;5.33;3.67;;;;;26.38;33.43;100490.66;5046172;28;45907;-81
2022/04/12 07:34:22;;;;;;;;;3.67;3.67;;;;;26.24;32.91;100487.75;5047033;28;45526;-79
2022/04/12 07:36:49;;;;;;;;;3.33;3.33;;;;;26.12;33.21;100484.69;5041108;28;45380;-76
2022/04/12 07:39:17;;;;;;;;;3.00;3.00;;;;;25.98;33.61;100482.84;5044915;28;45459;-80
2022/04/12 07:41:43;;;;;;;;;2.00;2.00;;;;;25.91;33.47;100480.91;5042312;28;45675;-80
2022/04/12 07:44:08;;;;;;;;;4.67;4.67;;;;;25.90;34.04;100481.09;5042366;28;45468;-80
2022/04/12 07:46:34;;;;;;;;;2.67;1.67;;;;;25.89;34.09;100474.84;5038662;28;46121;-78
2022/04/12 07:48:59;;;;;;;;;2.33;2.00;;;;;25.90;34.30;100481.09;5048796;28;45865;-78
2022/04/12 07:51:24;;;;;;;;;2.33;2.33;;;;;25.92;34.36;100481.78;5042259;28;45799;-79
2022/04/12 07:53:50;;;;;;;;;2.67;2.67;;;;;25.93;34.33;100480.72;5037149;28;45651;-79
2022/04/12 07:56:16;;;;;;;;;5.00;3.33;;;;;25.97;34.88;100476.59;5044784;28;47552;-80
2022/04/12 07:58:41;;;;;;;;;3.67;3.67;;;;;25.98;34.76;100470.13;5040589;28;45643;-79
2022/04/12 08:01:07;;;;;;;;;2.00;2.00;;;;;26.01;35.02;100477.91;5037115;28;45497;-80
2022/04/12 08:03:32;;;;;;;;;2.33;2.33;;;;;26.03;34.66;100474.97;5040795;28;45457;-80
2022/04/12 08:05:58;;;;;;;;;2.33;2.33;;;;;26.05;34.75;100468.31;5038413;28;45410;-83
2022/04/12 08:08:23;;;;;;;;;2.67;2.00;;;;;26.05;34.89;100471.06;5040188;28;45558;-83
2022/04/12 08:10:48;;;;;;;;;3.00;2.00;;;;;26.09;35.05;100465.19;5036025;28;45398;-78
2022/04/12 08:13:14;;;;;;;;;3.00;3.00;;;;;26.11;34.82;100468.59;5042728;28;45418;-79
2022/04/12 08:15:40;;;;;;;;;2.00;2.00;;;;;26.15;35.03;100472.59;5042439;28;45819;-74
2022/04/12 08:18:05;;;;;;;;;3.00;3.00;;;;;26.16;35.03;100466.97;5047244;28;45538;-86
2022/04/12 08:20:31;;;;;;;;;2.00;2.00;;;;;26.17;35.14;100475.97;5039814;28;45557;-81
2022/04/12 08:22:56;;;;;;;;;2.00;2.00;;;;;26.18;35.32;100475.78;5030919;28;45500;-80
2022/04/12 08:25:22;;;;;;;;;2.33;2.33;;;;;26.22;35.51;100478.09;5035308;28;45445;-80
2022/04/12 08:27:48;;;;;;;;;2.67;2.67;;;;;26.24;35.70;100476.03;5041261;28;45451;-78
2022/04/12 08:30:14;;;;;;;;;2.33;2.33;;;;;26.26;35.24;100471.28;5045944;28;45425;-79
2022/04/12 08:32:39;;;;;;;;;2.33;2.33;;;;;26.27;35.82;100471.09;5052272;28;45375;-79
2022/04/12 08:35:06;;;;;;;;;3.00;2.33;;;;;26.30;35.76;100464.41;5046094;28;46280;-80
2022/04/12 08:37:31;;;;;;;;;3.00;2.00;;;;;26.31;35.47;100468.81;5049776;28;45428;-81
2022/04/12 08:39:57;;;;;;;;;2.33;2.00;;;;;26.29;35.65;100468.19;5037714;28;45475;-78
2022/04/12 08:42:22;;;;;;;;;2.67;2.33;;;;;26.30;35.93;100473.44;5061294;28;45479;-79
2022/04/12 08:44:49;;;;;;;;;2.33;1.33;;;;;26.29;36.00;100460.84;5044149;28;45594;-86
2022/04/12 08:47:17;;;;;;;;;4.00;2.00;;;;;26.29;36.14;100457.28;5045955;28;45453;-84
2022/04/12 08:49:43;;;;;;;;;4.00;3.00;;;;;26.27;35.81;100459.34;5046298;28;45598;-86
2022/04/12 08:52:11;;;;;;;;;2.00;2.00;;;;;26.28;36.02;100466.50;5047187;28;45497;-87
2022/04/12 08:54:40;;;;;;;;;2.33;1.67;;;;;26.29;36.27;100462.72;5036184;28;45534;-86
2022/04/12 08:57:06;;;;;;;;;3.00;3.00;;;;;26.29;35.76;100477.16;5050538;28;45890;-80
2022/04/12 08:59:31;;;;;;;;;4.33;3.00;;;;;26.30;36.15;100464.41;5046718;28;45693;-81
2022/04/12 09:01:57;;;;;;;;;2.00;2.00;;;;;26.30;36.24;100467.97;5041904;28;45590;-83
2022/04/12 09:04:26;;;;;;;;;2.00;2.00;;;;;26.34;36.39;100467.56;5044071;28;46406;-82
2022/04/12 09:06:53;;;;;;;;;4.00;2.33;;;;;26.32;36.22;100470.47;5036735;28;45668;-81
2022/04/12 09:09:26;;;;;;;;;6.67;3.33;;;;;26.30;36.65;100457.09;5048125;28;45330;-80
2022/04/12 09:11:59;;;;;;;;;2.00;2.00;;;;;26.30;36.46;100467.97;5049693;28;48333;-78
2022/04/12 09:14:25;;;;;;;;;2.00;2.00;;;;;26.30;36.47;100467.13;5042121;28;46583;-79
2022/04/12 09:16:52;;;;;;;;;2.67;2.67;;;;;26.31;36.09;100464.22;5043557;28;45578;-79
2022/04/12 09:19:42;;;;;;;;;2.33;2.33;;;;;26.36;36.67;100473.69;5039332;28;45751;-80
2022/04/12 09:22:19;;;;;;;;;2.00;2.00;;;;;26.39;36.58;100476.00;5046399;28;45621;-79
2022/04/12 09:24:58;;;;;;;;;2.00;2.00;;;;;26.41;36.23;100477.47;5042314;28;46516;-77
2022/04/12 09:27:26;;;;;;;;;4.00;2.67;;;;;26.44;35.67;100468.09;5046482;28;46340;-76
2022/04/12 09:30:04;;;;;;;;;2.33;2.33;;;;;26.43;35.51;100463.69;5045773;28;45381;-77
2022/04/12 09:32:37;;;;;;;;;2.67;2.00;;;;;26.43;35.41;100478.16;5043901;28;45625;-79
2022/04/12 09:35:03;;;;;;;;;2.00;2.00;;;;;26.44;35.47;100477.09;5038027;28;45473;-81
2022/04/12 09:37:33;;;;;;;;;0.33;0.00;;;;;26.44;35.36;100471.66;5043735;28;45478;-79
2022/04/12 09:39:58;;;;;;;;;2.00;2.00;;;;;26.43;35.50;100461.81;5044894;28;45720;-78
2022/04/12 09:42:50;;;;;;;;;3.00;2.00;;;;;26.47;35.59;100461.41;5045399;28;45534;-83
2022/04/12 09:45:18;;;;;;;;;1.33;1.33;;;;;26.48;35.72;100450.34;5040329;28;47555;-82
2022/04/12 09:47:45;;;;;;;;;3.33;3.33;;;;;26.49;35.68;100452.03;5046560;28;45376;-81
2022/04/12 09:50:11;;;;;;;;;2.33;2.00;;;;;26.53;35.87;100452.50;5046316;28;45489;-81
2022/04/12 09:52:37;;;;;;;;;2.00;2.00;;;;;26.52;35.48;100451.63;5045354;28;45641;-79
2022/04/12 09:55:04;;;;;;;;;3.00;3.00;;;;;26.57;35.88;100451.06;5045930;28;45558;-80
2022/04/12 09:57:30;;;;;;;;;2.00;2.00;;;;;26.59;35.91;100438.09;5044428;28;45511;-78
2022/04/12 09:59:57;;;;;;;;;1.00;1.00;;;;;26.62;35.86;100450.47;5048702;28;45464;-80
2022/04/12 10:02:24;;;;;;;;;1.33;1.33;;;;;26.60;35.91;100439.75;5047348;28;45670;-85
2022/04/12 10:04:52;;;;;;;;;2.00;2.00;;;;;26.60;35.95;100439.75;5046254;28;45831;-84
2022/04/12 10:07:20;;;;;;;;;2.67;2.33;;;;;26.56;35.88;100431.16;5040603;28;45462;-84
2022/04/12 10:09:51;;;;;;;;;3.00;3.00;;;;;26.52;35.74;100429.88;5043003;28;45549;-76
2022/04/12 10:12:17;;;;;;;;;2.33;2.33;;;;;26.54;35.56;100430.53;5044381;28;45408;-76
2022/04/12 10:14:44;;;;;;;;;1.00;1.00;;;;;26.60;35.55;100430.78;5051046;28;46293;-76
2022/04/12 10:17:11;;;;;;;;;3.00;2.00;;;;;26.62;35.98;100421.38;5048681;28;45455;-76
2022/04/12 10:19:36;;;;;;;;;1.67;1.67;;;;;26.67;35.34;100421.63;5044681;28;45518;-76
2022/04/12 10:22:03;;;;;;;;;1.67;1.67;;;;;26.65;35.31;100403.81;5051874;28;45548;-76
2022/04/12 10:24:30;;;;;;;;;2.00;2.00;;;;;26.69;35.80;100408.63;5044797;28;46603;-75
2022/04/12 10:26:56;;;;;;;;;3.00;1.67;;;;;26.72;35.45;100415.56;5057126;28;45781;-75
2022/04/12 10:29:22;;;;;;;;;2.00;1.00;;;;;26.73;35.06;100414.53;5047582;28;45533;-75
2022/04/12 10:31:59;;;;;;;;;3.67;1.00;;;;;26.72;35.14;100409.31;5040999;28;45629;-77
2022/04/12 10:34:25;;;;;;;;;1.00;1.00;;;;;26.78;35.25;100413.94;5034497;28;46666;-77
2022/04/12 10:37:05;;;;;;;;;1.33;1.33;;;;;26.79;35.42;100416.47;5042718;28;45678;-77
2022/04/12 10:39:33;;;;;;;;;2.00;2.00;;;;;26.79;35.25;100426.50;5038131;28;45479;-80
2022/04/12 10:42:06;;;;;;;;;1.33;1.33;;;;;26.80;35.16;100436.34;5047899;28;45530;-78
2022/04/12 10:44:43;;;;;;;;;1.00;1.00;;;;;26.78;35.25;100435.72;5037871;28;47773;-78
2022/04/12 10:47:27;;;;;;;;;3.67;2.67;;;;;26.76;35.31;100438.63;5034798;28;45528;-78
2022/04/12 10:49:59;;;;;;;;;1.67;1.67;;;;;26.76;34.91;100441.34;5034474;28;45757;-77
2022/04/12 10:52:42;;;;;;;;;3.00;2.00;;;;;26.77;34.83;100437.59;5037886;28;45428;-77
2022/04/12 10:55:11;;;;;;;;;1.33;1.33;;;;;26.79;34.79;100440.13;5036799;28;45472;-76
2022/04/12 10:57:36;;;;;;;;;1.67;1.67;;;;;26.75;34.97;100431.50;5043438;28;45915;-76
2022/04/12 11:00:11;;;;;;;;;2.00;2.00;;;;;26.72;34.69;100431.09;5044338;28;45699;-78
2022/04/12 11:02:37;;;;;;;;;2.33;2.33;;;;;26.74;33.66;100445.31;5045515;28;45693;-77
2022/04/12 11:05:03;;;;;;;;;3.33;1.33;;;;;26.72;32.89;100442.78;5044690;28;45588;-76
2022/04/12 11:07:31;;;;;;;;;2.33;2.33;;;;;26.66;32.52;100451.75;5042316;28;45537;-79
2022/04/12 11:10:12;;;;;;;;;4.33;4.33;;;;;26.63;32.59;100463.03;5050156;28;45490;-85
2022/04/12 11:12:42;;;;;;;;;3.67;0.67;;;;;26.63;32.56;100461.16;5038191;28;45910;-81
2022/04/12 11:15:28;;;;;;;;;4.67;4.00;;;;;26.59;32.44;100459.88;5044440;28;46484;-78
2022/04/12 11:18:15;;;;;;;;;6.33;3.00;;;;;26.53;32.67;100464.19;5036444;28;45552;-78
2022/04/12 11:20:45;;;;;;;;;2.00;1.00;;;;;26.50;32.47;100467.34;5047340;28;45491;-78
2022/04/12 11:23:13;;;;;;;;;4.67;3.00;;;;;26.49;32.54;100475.69;5043341;28;45528;-78
2022/04/12 11:25:47;;;;;;;;;4.00;4.00;;;;;26.51;32.24;100473.59;5046675;28;46293;-79
2022/04/12 11:28:15;;;;;;;;;4.00;2.00;;;;;26.49;32.16;100465.66;5048716;28;45497;-78
2022/04/12 11:30:40;;;;;;;;;5.33;4.00;;;;;26.46;32.55;100449.72;5043711;28;45186;-78
2022/04/12 11:33:08;;;;;;;;;3.00;3.00;;;;;26.50;32.34;100458.31;5052559;28;45364;-79
2022/04/12 11:35:33;;;;;;;;;4.00;3.00;;;;;26.52;32.31;100464.41;5046244;28;45821;-75
2022/04/12 11:38:03;;;;;;;;;4.00;2.67;;;;;26.49;32.21;100454.78;5038664;28;45432;-75
2022/04/12 11:40:30;;;;;;;;;4.33;4.33;;;;;26.47;32.40;100454.09;5038952;28;45518;-75
2022/04/12 11:42:56;;;;;;;;;4.00;2.00;;;;;26.49;32.41;100467.53;5041734;28;45638;-75
2022/04/12 11:45:31;;;;;;;;;10.33;5.00;;;;;26.47;32.53;100462.28;5049837;28;46194;-78
2022/04/12 11:47:59;;;;;;;;;7.00;5.00;;;;;26.44;32.64;100458.06;5047094;28;45446;-77
2022/04/12 11:50:25;;;;;;;;;3.33;3.00;;;;;26.44;33.09;100462.66;5046738;28;45909;-79
2022/04/12 11:52:50;;;;;;;;;4.67;4.00;;;;;26.44;33.32;100457.19;5048872;28;45475;-80
2022/04/12 11:55:16;;;;;;;;;4.33;3.00;;;;;26.48;33.31;100460.41;5048275;28;46439;-79
2022/04/12 11:57:41;;;;;;;;;4.67;3.67;;;;;26.53;33.26;100461.47;5043678;28;46418;-78
2022/04/12 12:00:08;;;;;;;;;3.33;3.33;;;;;26.58;33.92;100460.91;5045548;28;45588;-76
2022/04/12 12:02:38;;;;;;;;;3.67;3.00;;;;;26.61;34.02;100463.25;5037112;28;45509;-78
2022/04/12 12:05:09;;;;;;;;;4.00;2.33;;;;;26.66;33.74;100452.59;5048379;28;45649;-78
2022/04/12 12:07:36;;;;;;;;;5.33;3.33;;;;;26.71;34.10;100452.00;5046780;28;45446;-78
2022/04/12 12:10:09;;;;;;;;;3.00;2.00;;;;;26.76;34.45;100454.97;5043740;28;45482;-80
2022/04/12 12:12:37;;;;;;;;;2.33;2.33;;;;;26.82;34.22;100465.06;5055081;28;45645;-80
2022/04/12 12:15:21;;;;;;;;;5.33;3.33;;;;;26.86;34.11;100462.81;5055957;28;45346;-81
2022/04/12 12:17:49;;;;;;;;;4.00;2.33;;;;;26.89;34.92;100453.41;5048526;28;45626;-77
2022/04/12 12:20:15;;;;;;;;;5.33;3.67;;;;;26.90;34.41;100452.34;5044119;28;45349;-77
2022/04/12 12:22:44;;;;;;;;;6.67;2.33;;;;;26.94;34.79;100449.06;5045199;28;45530;-83
2022/04/12 12:25:18;;;;;;;;;9.33;8.33;;;;;26.99;34.42;100458.50;5047205;28;47278;-78
2022/04/12 12:27:48;;;;;;;;;14.33;14.33;;;;;27.04;33.83;100450.59;5055188;27;45437;-86
2022/04/12 12:30:17;;;;;;;;;14.67;14.67;;;;;27.06;34.30;100457.50;5047592;28;45468;-79
2022/04/12 12:32:44;;;;;;;;;10.67;10.67;;;;;27.07;34.45;100466.53;5046750;28;45522;-80
2022/04/12 12:35:11;;;;;;;;;14.67;13.33;;;;;27.07;34.12;100466.53;5047137;28;46255;-79
2022/04/12 12:37:39;;;;;;;;;11.00;11.00;;;;;27.07;34.12;100469.25;5050327;28;45381;-80
2022/04/12 12:40:20;;;;;;;;;13.00;13.00;;;;;27.10;34.71;100475.16;5050623;28;45526;-78
2022/04/12 12:42:46;;;;;;;;;17.00;14.00;;;;;27.11;34.61;100470.56;5050057;28;45708;-80
2022/04/12 12:45:13;;;;;;;;;14.33;13.67;;;;;27.18;34.74;100485.03;5043378;28;45455;-80
2022/04/12 12:47:44;;;;;;;;;16.33;14.00;;;;;27.22;34.89;100482.78;5040607;28;45533;-81
2022/04/12 12:50:15;;;;;;;;;12.00;10.67;;;;;27.25;34.60;100489.72;5042226;28;45436;-79
2022/04/12 12:52:43;;;;;;;;;12.00;12.00;;;;;27.22;35.21;100485.50;5040833;28;45494;-82
2022/04/12 12:55:15;;;;;;;;;10.67;9.00;;;;;27.21;35.00;100490.09;5049717;28;46419;-81
2022/04/12 12:57:48;;;;;;;;;13.00;10.33;;;;;27.18;34.67;100487.75;5047098;28;45490;-80
2022/04/12 13:00:15;;;;;;;;;13.33;13.33;;;;;27.16;35.19;100487.13;5049476;28;45496;-83
2022/04/12 13:02:41;;;;;;;;;11.00;10.67;;;;;27.15;35.28;100492.78;5051605;28;45724;-82
2022/04/12 13:05:09;;;;;;;;;14.67;14.00;;;;;27.19;35.18;100499.50;5044747;28;45551;-84
2022/04/12 13:07:37;;;;;;;;;12.67;12.00;;;;;27.21;35.50;100495.56;5035961;28;45517;-82
2022/04/12 13:10:08;;;;;;;;;13.33;10.33;;;;;27.27;35.09;100499.38;5043986;28;45443;-82
2022/04/12 13:12:34;;;;;;;;;12.00;12.00;;;;;27.27;35.08;100501.25;5051936;28;45347;-81
2022/04/12 13:14:59;;;;;;;;;15.00;12.67;;;;;27.28;35.50;100498.31;5049269;28;46910;-81
2022/04/12 13:17:25;;;;;;;;;14.00;13.33;;;;;27.28;35.71;100483.84;5040814;28;45462;-82
2022/04/12 13:19:50;;;;;;;;;14.00;13.67;;;;;27.23;35.65;100482.56;5043774;28;45545;-79
2022/04/12 13:22:15;;;;;;;;;14.00;12.33;;;;;27.23;35.36;100490.72;5036720;28;51390;-80
2022/04/12 13:24:40;;;;;;;;;15.33;14.00;;;;;27.27;35.46;100502.09;5046866;28;45611;-78
2022/04/12 13:27:06;;;;;;;;;12.33;11.00;;;;;27.27;35.55;100495.78;5039951;28;45603;-79
2022/04/12 13:29:31;;;;;;;;;39.00;33.00;;;;;27.30;35.33;100495.41;5043970;28;46227;-79
2022/04/12 13:31:57;;;;;;;;;37.75;32.25;;;;;27.39;33.95;100494.19;5048174;28;45710;-80
2022/04/12 13:34:22;;;;;;;;;32.00;30.00;;;;;27.42;34.24;100485.59;5046185;28;45533;-84
2022/04/12 13:36:48;;;;;;;;;36.00;29.00;;;;;27.49;33.88;100500.13;5050618;28;45467;-87
2022/04/12 17:05:03;;;;;;;;;6.75;5.75;;;;;19.55;50.04;100659.88;5106203;27;45513;-81
2022/04/12 17:07:28;;;;;;;;;7.75;6.00;;;;;19.72;50.54;100652.06;5097203;27;45516;-83
2022/04/12 17:09:54;;;;;;;;;10.00;9.00;;;;;20.01;50.09;100660.09;5092973;27;45417;-77
2022/04/12 17:12:19;;;;;;;;;9.00;7.75;;;;;20.39;50.26;100654.69;5100407;27;45505;-78
2022/04/12 17:14:45;;;;;;;;;7.00;7.00;;;;;20.83;48.98;100666.63;5099876;27;48449;-82
2022/04/12 17:17:10;;;;;;;;;9.00;8.00;;;;;21.27;48.46;100667.75;5094908;27;45415;-82
2022/04/12 17:19:35;;;;;;;;;8.00;6.00;;;;;21.71;48.17;100673.19;5100880;27;47735;-83
2022/04/12 17:22:01;;;;;;;;;2.67;1.00;;;;;22.15;47.68;100667.91;5099722;27;45882;-81
2022/04/12 17:24:26;;;;;;;;;6.33;6.33;;;;;22.55;46.36;100658.28;5100723;27;45768;-81
2022/04/12 17:26:52;;;;;;;;;7.33;5.67;;;;;22.90;45.90;100667.16;5104764;27;45413;-83
2022/04/12 17:29:18;;;;;;;;;7.00;5.67;;;;;23.25;45.59;100664.31;5106149;27;45476;-83
2022/04/12 17:31:44;;;;;;;;;4.33;3.67;;;;;23.57;44.95;100666.41;5102962;27;45497;-83
2022/04/12 17:34:14;;;;;;;;;5.33;4.33;;;;;23.86;44.47;100665.00;5100343;27;46256;-83
2022/04/12 17:36:43;;;;;;;;;5.00;5.00;;;;;24.11;44.26;100667.66;5103976;27;45818;-79
2022/04/12 17:39:09;;;;;;;;;4.67;4.00;;;;;24.32;43.94;100651.63;5098640;27;45462;-80
2022/04/12 17:41:35;;;;;;;;;3.33;3.00;;;;;24.52;43.24;100651.22;5102127;27;45895;-80
2022/04/12 17:44:00;;;;;;;;;4.00;4.00;;;;;24.70;42.85;100661.81;5100857;27;45552;-77
2022/04/12 17:46:26;;;;;;;;;4.00;4.00;;;;;24.89;42.59;100664.28;5106660;27;45641;-76
2022/04/12 17:48:51;;;;;;;;;3.67;3.67;;;;;25.04;42.11;100664.31;5105898;27;45627;-78
2022/04/12 17:51:17;;;;;;;;;5.33;3.33;;;;;25.17;41.92;100661.84;5104484;27;45344;-78
2022/04/12 17:53:44;;;;;;;;;3.00;3.00;;;;;25.32;41.48;100667.34;5094810;27;46707;-78
2022/04/12 17:56:10;;;;;;;;;3.33;3.33;;;;;25.45;41.34;100655.00;5094456;27;45522;-77
2022/04/12 17:58:37;;;;;;;;;3.00;3.00;;;;;25.57;41.09;100663.59;5092147;27;45437;-78
2022/04/12 18:01:02;;;;;;;;;3.33;3.33;;;;;25.68;40.75;100674.03;5101813;27;45615;-79
2022/04/12 18:03:30;;;;;;;;;3.33;2.00;;;;;25.75;40.51;100683.13;5102574;27;46984;-78
2022/04/12 18:05:56;;;;;;;;;5.33;5.33;;;;;25.85;40.01;100687.44;5102235;27;46575;-80
2022/04/12 18:08:22;;;;;;;;;5.00;3.33;;;;;25.91;39.41;100694.84;5096171;27;45477;-79
2022/04/12 18:10:47;;;;;;;;;5.00;4.00;;;;;25.96;39.86;100697.88;5099119;27;46076;-78
2022/04/12 18:13:12;;;;;;;;;4.67;4.67;;;;;26.00;39.70;100701.88;5106229;27;46998;-79
2022/04/12 18:15:38;;;;;;;;;2.67;2.67;;;;;26.05;39.50;100714.94;5097476;27;45500;-80
2022/04/12 18:18:03;;;;;;;;;24.50;21.25;;;;;26.09;38.90;100715.41;5092321;27;45545;-76
2022/04/12 18:20:29;;;;;;;;;28.25;27.50;;;;;26.12;38.62;100723.22;5090063;27;45580;-76
2022/04/12 18:22:54;;;;;;;;;30.25;28.25;;;;;26.15;37.97;100728.25;5090808;27;46519;-77
2022/04/12 18:25:19;;;;;;;;;29.25;24.75;;;;;26.19;37.92;100743.16;5092103;27;53143;-76
2022/04/12 18:27:45;;;;;;;;;33.25;28.00;;;;;26.20;37.61;100753.03;5091921;27;45397;-77
2022/04/12 18:30:10;;;;;;;;;27.50;25.50;;;;;26.22;37.48;100759.13;5088405;27;45463;-80
2022/04/12 18:32:37;;;;;;;;;26.00;23.75;;;;;26.22;37.99;100752.84;5088616;27;45521;-81